Time;durP1;ratioP1;P1;durP2;ratioP2;P2;SDS_P1;SDS_P2;PMS_P1;PMS_P2;Temp;Humidity;BMP_temperature;BMP_pressure;BME280_temperature;BME280_humidity;BME280_pressure;Samples;Min_cycle;Max_cycle;Signal;HPM_P1;HPM_P2
2023/01/11 04:01:56;;;;;;;13.82;4.22;;;10.80;99.90;;;;;;6037292;23;20114;-84
2023/01/11 04:04:22;;;;;;;19.13;6.22;;;10.80;99.90;;;;;;6070124;23;20019;-83
2023/01/11 04:06:48;;;;;;;14.65;4.65;;;10.80;99.90;;;;;;6070939;23;20445;-81
2023/01/11 04:09:13;;;;;;;18.05;4.15;;;10.80;99.90;;;;;;6071182;23;20071;-80
2023/01/11 04:11:39;;;;;;;16.52;4.35;;;10.90;99.90;;;;;;6028544;23;20026;-81
2023/01/11 04:14:05;;;;;;;15.75;4.05;;;10.80;99.90;;;;;;6016762;23;20027;-81
2023/01/11 04:16:30;;;;;;;19.90;4.28;;;10.80;99.90;;;;;;6016946;23;20472;-82
2023/01/11 04:18:56;;;;;;;16.30;4.18;;;10.80;99.90;;;;;;6017556;23;20019;-79
2023/01/11 04:21:22;;;;;;;17.02;3.97;;;10.80;99.90;;;;;;6041246;23;20450;-81
2023/01/11 04:23:48;;;;;;;28.95;4.53;;;10.80;99.90;;;;;;6016571;23;20035;-81
2023/01/11 04:26:16;;;;;;;22.85;5.00;;;10.70;99.90;;;;;;6016579;23;20015;-82
2023/01/11 04:28:42;;;;;;;20.20;4.75;;;10.70;99.90;;;;;;6016279;23;20075;-80
2023/01/11 04:31:08;;;;;;;28.38;4.13;;;10.70;99.90;;;;;;6017130;23;20367;-81
2023/01/11 04:33:34;;;;;;;22.42;4.00;;;10.70;99.90;;;;;;6016839;23;20019;-81
2023/01/11 04:36:04;;;;;;;30.70;4.03;;;10.60;99.90;;;;;;6016746;23;20019;-80
2023/01/11 04:38:30;;;;;;;27.02;3.75;;;10.70;99.90;;;;;;6016517;23;20015;-81
2023/01/11 04:42:17;;;;;;;24.67;5.65;;;10.70;99.90;;;;;;6016222;23;20345;-81
2023/01/11 04:43:41;;;;;;;29.10;3.90;;;10.60;99.90;;;;;;6016326;23;20453;-81
2023/01/11 04:46:09;;;;;;;21.15;3.60;;;10.60;99.90;;;;;;6016151;23;20033;-82
2023/01/11 04:48:38;;;;;;;32.13;5.05;;;10.60;99.90;;;;;;6016336;23;20019;-81
2023/01/11 04:51:08;;;;;;;31.90;6.22;;;10.60;99.90;;;;;;6042065;23;20075;-83
2023/01/11 04:53:34;;;;;;;31.58;4.63;;;10.60;99.90;;;;;;6041889;23;20083;-81
2023/01/11 04:56:04;;;;;;;27.63;3.70;;;10.60;99.90;;;;;;6016118;23;20082;-80
2023/01/11 04:58:31;;;;;;;27.15;4.55;;;10.60;99.90;;;;;;6016253;23;20022;-82
2023/01/11 05:00:57;;;;;;;27.33;3.58;;;10.50;99.90;;;;;;6016085;23;20011;-82
2023/01/11 05:03:23;;;;;;;33.28;5.20;;;10.50;99.90;;;;;;6041109;23;20022;-82
2023/01/11 05:05:59;;;;;;;38.80;4.75;;;10.50;99.90;;;;;;6015823;23;20397;-79
2023/01/11 05:08:27;;;;;;;25.25;3.80;;;10.40;99.90;;;;;;6016065;23;20015;-80
2023/01/11 05:10:58;;;;;;;28.88;4.40;;;10.50;99.90;;;;;;6015921;23;20027;-81
2023/01/11 05:13:40;;;;;;;23.70;4.32;;;10.40;99.90;;;;;;6041175;23;20011;-82
2023/01/11 05:16:26;;;;;;;31.45;4.65;;;10.40;99.90;;;;;;6016510;23;20015;-81
2023/01/11 05:18:57;;;;;;;34.33;4.82;;;10.40;99.90;;;;;;6041205;23;20017;-81
2023/01/11 05:21:25;;;;;;;33.45;5.32;;;10.40;99.90;;;;;;6015908;23;20394;-80
2023/01/11 05:23:52;;;;;;;26.83;4.22;;;10.40;99.90;;;;;;6042200;23;20019;-82
2023/01/11 05:26:23;;;;;;;21.38;4.35;;;10.40;99.90;;;;;;6016693;23;20020;-80
2023/01/11 05:28:50;;;;;;;27.15;4.40;;;10.40;99.90;;;;;;6042112;23;20026;-80
2023/01/11 05:31:16;;;;;;;39.83;4.30;;;10.40;99.90;;;;;;6016547;23;20098;-83
2023/01/11 05:33:41;;;;;;;30.20;3.88;;;10.30;99.90;;;;;;6015990;23;20047;-82
2023/01/11 05:36:13;;;;;;;29.52;5.45;;;10.30;99.90;;;;;;6041737;23;20015;-82
2023/01/11 05:38:39;;;;;;;26.08;3.53;;;10.30;99.90;;;;;;6042081;23;20153;-80
2023/01/11 05:41:07;;;;;;;26.17;3.60;;;10.30;99.90;;;;;;6015658;23;20093;-81
2023/01/11 05:45:27;;;;;;;26.85;4.05;;;10.30;99.90;;;;;;6016933;23;20029;-81
2023/01/11 05:46:19;;;;;;;25.35;3.42;;;10.30;99.90;;;;;;6040613;23;20019;-80
2023/01/11 05:48:45;;;;;;;30.58;4.85;;;10.30;99.90;;;;;;6041630;23;20019;-80
2023/01/11 05:51:11;;;;;;;27.35;3.92;;;10.30;99.90;;;;;;5992420;23;20017;-81
2023/01/11 05:53:36;;;;;;;20.50;3.15;;;10.30;99.90;;;;;;6016033;23;20444;-80
2023/01/11 05:56:02;;;;;;;30.15;4.20;;;10.30;99.90;;;;;;6041558;23;20019;-80
2023/01/11 05:58:27;;;;;;;31.90;4.18;;;10.20;99.90;;;;;;6016073;23;20350;-78
2023/01/11 06:00:54;;;;;;;30.00;3.80;;;10.20;99.90;;;;;;6008745;23;20018;-82
2023/01/11 06:03:21;;;;;;;22.10;3.25;;;10.20;99.90;;;;;;5987385;23;20015;-79
2023/01/11 06:05:47;;;;;;;21.70;2.95;;;10.20;99.90;;;;;;6012677;23;20020;-79
2023/01/11 06:08:13;;;;;;;24.55;4.32;;;10.20;99.90;;;;;;5987630;23;20012;-79
2023/01/11 06:10:39;;;;;;;19.80;3.30;;;10.20;99.90;;;;;;5987207;23;20086;-80
2023/01/11 06:13:26;;;;;;;20.35;3.78;;;10.20;99.90;;;;;;5964905;23;20046;-79
2023/01/11 06:15:57;;;;;;;;;;;10.10;99.90;;;;;;5987683;23;20390;-80
2023/01/11 06:18:23;;;;;;;26.58;4.88;;;10.10;99.90;;;;;;5987366;23;19955;-81
2023/01/11 06:20:49;;;;;;;21.90;3.30;;;10.10;99.90;;;;;;5987555;23;20034;-81
2023/01/11 06:23:15;;;;;;;21.58;3.10;;;10.10;99.90;;;;;;6012194;23;20056;-80
2023/01/11 06:25:41;;;;;;;22.90;3.53;;;10.00;99.90;;;;;;5987861;23;20438;-80
2023/01/11 06:28:07;;;;;;;21.58;3.05;;;10.00;99.90;;;;;;5986547;23;20076;-80
2023/01/11 06:30:32;;;;;;;27.85;3.15;;;9.90;99.90;;;;;;5987182;23;20079;-80
2023/01/11 06:33:05;;;;;;;24.63;3.90;;;9.90;99.90;;;;;;6012106;23;20019;-81
2023/01/11 06:35:37;;;;;;;22.92;3.00;;;9.90;99.90;;;;;;5987731;23;20015;-78
2023/01/11 06:38:03;;;;;;;26.42;2.95;;;9.90;99.90;;;;;;6012514;23;20026;-79
2023/01/11 06:40:28;;;;;;;31.20;3.13;;;9.90;99.90;;;;;;6012028;23;20019;-78
2023/01/11 06:42:54;;;;;;;22.55;3.25;;;9.80;99.90;;;;;;5986956;23;20020;-80
2023/01/11 06:45:20;;;;;;;20.85;3.45;;;9.80;99.90;;;;;;5987053;23;20355;-82
2023/01/11 06:47:45;;;;;;;27.42;3.58;;;9.80;99.90;;;;;;5988286;23;20020;-79
2023/01/11 06:50:11;;;;;;;22.75;3.78;;;9.70;99.90;;;;;;6012988;23;20012;-76
2023/01/11 06:52:37;;;;;;;20.15;2.92;;;9.70;99.90;;;;;;5987252;23;20035;-78
2023/01/11 06:55:02;;;;;;;20.55;3.40;;;9.70;99.90;;;;;;5986444;23;20019;-79
2023/01/11 06:57:28;;;;;;;27.15;4.68;;;9.60;99.90;;;;;;5986252;23;20027;-80
2023/01/11 06:59:54;;;;;;;23.25;3.15;;;9.60;99.90;;;;;;5987494;23;20059;-79
2023/01/11 07:02:20;;;;;;;27.95;3.38;;;9.60;99.90;;;;;;6010254;23;20100;-79
2023/01/11 07:04:45;;;;;;;23.70;3.40;;;9.50;99.90;;;;;;6014698;23;20404;-80
2023/01/11 07:07:11;;;;;;;20.92;2.83;;;9.50;99.90;;;;;;6039979;23;20011;-79
2023/01/11 07:09:36;;;;;;;25.33;3.92;;;9.50;99.90;;;;;;6014443;23;20007;-81
2023/01/11 07:12:02;;;;;;;25.55;3.40;;;9.50;99.90;;;;;;6040218;23;20019;-80
2023/01/11 07:14:28;;;;;;;28.92;3.58;;;9.50;99.90;;;;;;6014526;23;20019;-79
2023/01/11 07:16:53;;;;;;;23.60;3.13;;;9.50;99.90;;;;;;6014863;23;20019;-77
2023/01/11 07:19:19;;;;;;;25.13;3.35;;;9.50;99.90;;;;;;6014595;23;20019;-79
2023/01/11 07:21:44;;;;;;;19.40;3.15;;;9.50;99.90;;;;;;6039960;23;20018;-79
2023/01/11 07:24:10;;;;;;;23.52;3.10;;;9.50;99.90;;;;;;6039980;23;20016;-79
2023/01/11 07:26:40;;;;;;;16.83;2.50;;;9.50;99.90;;;;;;6014631;23;20053;-78
2023/01/11 07:29:10;;;;;;;16.25;2.80;;;9.50;99.90;;;;;;6014549;23;20057;-80
2023/01/11 07:31:35;;;;;;;19.67;3.03;;;9.50;99.90;;;;;;6015091;23;20016;-79
2023/01/11 07:34:02;;;;;;;17.45;2.72;;;9.50;99.90;;;;;;6039895;23;20059;-78
2023/01/11 07:36:28;;;;;;;16.80;3.05;;;9.50;99.90;;;;;;5990844;23;20027;-80
2023/01/11 07:38:54;;;;;;;16.70;2.42;;;9.50;99.90;;;;;;6015504;23;20452;-79
2023/01/11 07:44:05;;;;;;;12.32;2.55;;;9.50;99.90;;;;;;6041483;23;20139;-80
2023/01/11 07:46:30;;;;;;;17.50;3.80;;;9.50;99.90;;;;;;6016266;23;20023;-77
2023/01/11 07:48:56;;;;;;;13.93;2.33;;;9.50;99.90;;;;;;6041614;23;20446;-80
2023/01/11 07:51:23;;;;;;;12.45;2.53;;;9.50;99.90;;;;;;6016436;23;20034;-80
2023/01/11 07:53:49;;;;;;;10.20;1.63;;;9.50;99.90;;;;;;6016775;23;20048;-80
2023/01/11 07:56:15;;;;;;;17.25;1.92;;;9.40;99.90;;;;;;6016542;23;20027;-80
2023/01/11 07:58:41;;;;;;;13.23;1.60;;;9.40;99.90;;;;;;6016063;23;20050;-80
2023/01/11 08:01:07;;;;;;;15.70;2.03;;;9.40;99.90;;;;;;6041112;23;20020;-79
2023/01/11 08:03:32;;;;;;;11.65;1.90;;;9.30;99.90;;;;;;6016025;23;20016;-79
2023/01/11 08:05:58;;;;;;;7.30;1.42;;;9.30;99.90;;;;;;6015975;23;20341;-78
2023/01/11 08:08:24;;;;;;;12.75;1.90;;;9.20;99.90;;;;;;5993025;23;20111;-78
2023/01/11 08:14:37;;;;;;;12.85;1.83;;;9.20;99.90;;;;;;5992704;23;20019;-79
2023/01/11 08:16:22;;;;;;;17.17;1.77;;;9.20;99.90;;;;;;6039256;23;20023;-79
2023/01/11 08:18:51;;;;;;;15.68;2.03;;;9.10;99.90;;;;;;5992533;23;20019;-79
2023/01/11 08:21:17;;;;;;;12.32;1.83;;;9.00;99.90;;;;;;6041605;23;20011;-79
2023/01/11 08:23:43;;;;;;;16.83;2.40;;;9.10;99.90;;;;;;6017287;23;20438;-76
2023/01/11 08:26:09;;;;;;;12.27;1.77;;;9.00;99.90;;;;;;6015963;23;20156;-79
2023/01/11 08:28:34;;;;;;;15.75;1.88;;;9.00;99.90;;;;;;6016039;23;20022;-78
2023/01/11 08:31:06;;;;;;;10.27;2.00;;;9.00;99.90;;;;;;6015757;23;20015;-80
2023/01/11 08:33:32;;;;;;;11.32;1.65;;;8.90;99.90;;;;;;6016203;23;20044;-79
2023/01/11 08:36:04;;;;;;;13.13;1.65;;;8.90;99.90;;;;;;6016265;23;20015;-78
2023/01/11 08:38:32;;;;;;;10.20;2.10;;;8.90;99.90;;;;;;6015837;23;20026;-79
2023/01/11 08:40:57;;;;;;;12.25;1.50;;;8.90;99.90;;;;;;6041928;23;20022;-79
2023/01/11 08:43:23;;;;;;;9.93;1.67;;;8.90;99.90;;;;;;6017048;23;20012;-78
2023/01/11 08:45:50;;;;;;;9.45;1.90;;;8.90;99.90;;;;;;6003624;23;20019;-74
2023/01/11 08:48:16;;;;;;;14.20;1.80;;;8.90;99.90;;;;;;6030098;23;20019;-75
2023/01/11 08:50:43;;;;;;;19.25;1.90;;;8.90;99.90;;;;;;6017085;23;20022;-76
2023/01/11 08:53:12;;;;;;;15.07;2.00;;;9.00;99.90;;;;;;6042399;23;20015;-79
2023/01/11 08:55:40;;;;;;;12.55;2.20;;;9.00;99.90;;;;;;6016289;23;20386;-79
2023/01/11 08:58:06;;;;;;;17.83;2.38;;;8.90;99.90;;;;;;6016095;23;20454;-78
2023/01/11 09:00:31;;;;;;;14.07;2.10;;;8.90;99.90;;;;;;5992513;23;20026;-78
2023/01/11 09:02:59;;;;;;;17.92;2.50;;;8.90;99.90;;;;;;6016083;23;20062;-80
2023/01/11 09:05:25;;;;;;;31.73;3.83;;;8.80;99.90;;;;;;6015821;23;20019;-78
2023/01/11 09:07:53;;;;;;;24.20;3.70;;;8.80;99.90;;;;;;6016834;23;20486;-78
2023/01/11 09:10:19;;;;;;;12.95;2.22;;;8.80;99.90;;;;;;6015692;23;20018;-80
2023/01/11 09:12:44;;;;;;;15.43;2.38;;;8.80;99.90;;;;;;6015831;23;20030;-79
2023/01/11 09:15:10;;;;;;;14.02;1.95;;;8.80;99.90;;;;;;6040824;23;20083;-81
2023/01/11 09:17:36;;;;;;;12.80;1.98;;;8.80;99.90;;;;;;6015992;23;20026;-80
2023/01/11 09:20:02;;;;;;;16.20;2.30;;;8.90;99.90;;;;;;6040797;23;20011;-79
2023/01/11 09:22:28;;;;;;;16.40;2.30;;;8.80;99.90;;;;;;6015663;23;20286;-79
2023/01/11 09:24:54;;;;;;;16.80;2.78;;;8.80;99.90;;;;;;6041051;23;20019;-79
2023/01/11 09:27:19;;;;;;;15.52;2.17;;;8.80;99.90;;;;;;6015365;23;20370;-80
2023/01/11 09:29:45;;;;;;;13.07;2.47;;;8.80;99.90;;;;;;6040630;23;20022;-79
2023/01/11 09:32:11;;;;;;;11.85;2.60;;;8.80;99.90;;;;;;6040555;23;20015;-79
2023/01/11 09:34:37;;;;;;;22.10;2.42;;;8.80;99.90;;;;;;6040977;23;20067;-80
2023/01/11 09:37:05;;;;;;;12.18;2.58;;;8.80;99.90;;;;;;6041300;23;20295;-81
2023/01/11 09:39:32;;;;;;;21.17;2.55;;;8.80;99.90;;;;;;6015513;23;20437;-79
2023/01/11 09:42:14;;;;;;;12.93;2.38;;;8.80;99.90;;;;;;6015474;23;20022;-79
2023/01/11 09:44:56;;;;;;;22.42;3.53;;;8.80;99.90;;;;;;6015402;23;20023;-79
2023/01/11 09:47:43;;;;;;;17.73;2.53;;;8.80;99.90;;;;;;6015455;23;20011;-81
2023/01/11 09:50:22;;;;;;;21.05;3.22;;;8.80;99.90;;;;;;6015291;23;20012;-80
2023/01/11 09:53:06;;;;;;;22.95;3.67;;;8.90;99.90;;;;;;6015416;23;20035;-79
2023/01/11 09:55:39;;;;;;;23.10;4.32;;;9.00;99.90;;;;;;6040876;23;20015;-80
2023/01/11 09:58:21;;;;;;;23.45;3.67;;;9.00;99.90;;;;;;6016167;23;20112;-78
2023/01/11 10:00:50;;;;;;;16.73;3.33;;;9.10;99.90;;;;;;5991850;23;20027;-79
2023/01/11 10:03:42;;;;;;;20.38;2.75;;;9.20;99.90;;;;;;6040895;23;20022;-79
2023/01/11 10:06:17;;;;;;;17.20;3.22;;;9.30;99.90;;;;;;6039142;23;20026;-78
2023/01/11 10:09:06;;;;;;;18.90;3.33;;;9.40;99.90;;;;;;6015383;23;20019;-80
2023/01/11 10:11:50;;;;;;;22.75;3.97;;;9.50;99.90;;;;;;6000419;23;20026;-79
2023/01/11 10:14:37;;;;;;;20.85;3.13;;;9.60;99.90;;;;;;6040184;23;20505;-80
2023/01/11 10:17:19;;;;;;;21.23;3.28;;;9.60;99.90;;;;;;6015183;23;20069;-80
2023/01/11 10:19:52;;;;;;;25.08;4.78;;;9.60;99.90;;;;;;6015107;23;20019;-79
2023/01/11 10:22:32;;;;;;;20.25;3.13;;;9.60;99.90;;;;;;5991853;23;20083;-78
2023/01/11 10:25:17;;;;;;;20.42;3.25;;;9.60;99.90;;;;;;5991534;23;20020;-79
2023/01/11 10:28:25;;;;;;;24.30;3.50;;;9.60;99.90;;;;;;6014973;23;20094;-78
2023/01/11 10:33:57;;;;;;;21.05;4.07;;;9.70;99.90;;;;;;6038620;23;20493;-78
2023/01/11 10:36:58;;;;;;;25.75;4.03;;;9.80;99.90;;;;;;6015169;23;20015;-78
2023/01/11 10:42:22;;;;;;;22.13;4.10;;;9.80;99.90;;;;;;6038327;23;20067;-79
2023/01/11 10:45:01;;;;;;;21.65;4.05;;;9.80;99.90;;;;;;5991304;23;20019;-80
2023/01/11 10:47:44;;;;;;;27.60;4.22;;;9.90;99.90;;;;;;6014813;23;20026;-78
2023/01/11 10:50:35;;;;;;;22.48;3.40;;;9.90;99.90;;;;;;6014715;23;20422;-80
2023/01/11 10:53:14;;;;;;;19.52;2.67;;;10.00;99.90;;;;;;6040099;23;20346;-79
2023/01/11 10:55:52;;;;;;;21.80;3.45;;;10.00;99.90;;;;;;6014866;23;20050;-79
2023/01/11 10:58:52;;;;;;;20.10;3.00;;;10.00;99.90;;;;;;6040689;23;20022;-79
2023/01/11 11:01:44;;;;;;;18.27;3.33;;;10.00;99.90;;;;;;6015279;23;20398;-79
2023/01/11 11:04:30;;;;;;;27.17;3.22;;;10.00;99.90;;;;;;6040375;23;20020;-78
2023/01/11 11:07:08;;;;;;;20.48;3.50;;;10.10;99.90;;;;;;6014900;23;20095;-80
2023/01/11 11:09:52;;;;;;;19.98;3.25;;;10.10;99.90;;;;;;6015307;23;20015;-80
2023/01/11 11:12:30;;;;;;;22.23;4.47;;;10.20;99.90;;;;;;6014534;23;20386;-79
2023/01/11 11:15:41;;;;;;;29.42;4.25;;;10.20;99.90;;;;;;6014839;23;20011;-80
2023/01/11 11:18:06;;;;;;;21.75;2.63;;;10.20;99.90;;;;;;5950144;23;20053;-81
2023/01/11 11:20:33;;;;;;;22.15;3.67;;;10.30;99.90;;;;;;6014753;23;20016;-80
2023/01/11 11:22:59;;;;;;;19.73;3.15;;;10.40;99.90;;;;;;6014617;23;20015;-80
2023/01/11 11:25:33;;;;;;;26.52;3.00;;;10.50;99.90;;;;;;6014646;23;20446;-80
2023/01/11 11:28:06;;;;;;;20.50;2.75;;;10.70;99.90;;;;;;6040276;23;20011;-78
2023/01/11 11:30:36;;;;;;;21.77;3.22;;;10.50;99.90;;;;;;6015346;23;20494;-79
2023/01/11 11:33:19;;;;;;;19.70;4.50;;;10.60;99.90;;;;;;6040369;23;20306;-79
2023/01/11 11:36:08;;;;;;;23.65;3.30;;;10.60;99.90;;;;;;6040431;23;20058;-80
2023/01/11 11:38:37;;;;;;;14.63;2.53;;;10.60;99.90;;;;;;6015505;23;20016;-79
2023/01/11 11:41:08;;;;;;;13.60;2.22;;;10.60;99.90;;;;;;6015557;23;20437;-79
2023/01/11 11:43:36;;;;;;;17.92;2.58;;;10.60;99.90;;;;;;5991266;23;20016;-79
2023/01/11 11:46:09;;;;;;;18.10;2.53;;;10.50;99.90;;;;;;6014896;23;20023;-80
2023/01/11 11:48:35;;;;;;;27.17;3.20;;;10.50;99.90;;;;;;5991947;23;20016;-80
2023/01/11 11:51:03;;;;;;;19.30;2.75;;;10.60;99.90;;;;;;6015326;23;20015;-79
2023/01/11 11:53:54;;;;;;;20.95;3.33;;;10.60;99.90;;;;;;5991830;23;20390;-79
2023/01/11 11:56:22;;;;;;;19.73;3.05;;;10.70;99.90;;;;;;6040722;23;20011;-80
2023/01/11 11:58:48;;;;;;;15.43;2.55;;;10.60;99.90;;;;;;6014942;23;20023;-79
2023/01/11 12:01:31;;;;;;;20.88;2.50;;;10.60;99.90;;;;;;6014933;23;20015;-80
2023/01/11 12:04:09;;;;;;;20.13;2.97;;;10.60;99.90;;;;;;6014883;23;20404;-78
2023/01/11 12:06:35;;;;;;;23.77;3.20;;;10.60;99.90;;;;;;6041154;23;20531;-80
2023/01/11 12:09:01;;;;;;;22.70;4.57;;;10.70;99.90;;;;;;6040671;23;20031;-80
2023/01/11 12:11:37;;;;;;;15.85;2.90;;;10.70;99.90;;;;;;6039833;23;20015;-77
2023/01/11 12:14:09;;;;;;;18.63;2.92;;;10.70;99.90;;;;;;6015108;23;20015;-79
2023/01/11 12:16:38;;;;;;;17.60;2.92;;;10.80;99.90;;;;;;6014676;23;20051;-79
2023/01/11 12:19:23;;;;;;;21.52;2.60;;;10.80;99.90;;;;;;6039831;23;20030;-80
2023/01/11 12:21:50;;;;;;;20.87;3.37;;;10.70;99.90;;;;;;6014313;23;20043;-79
2023/01/11 12:24:22;;;;;;;24.45;3.78;;;10.50;99.90;;;;;;6014247;23;20058;-78
2023/01/11 12:26:50;;;;;;;18.33;3.88;;;10.40;99.90;;;;;;6040889;23;20019;-79
2023/01/11 12:29:43;;;;;;;23.08;4.47;;;10.30;99.90;;;;;;5991356;23;20434;-78
2023/01/11 12:32:25;;;;;;;14.40;2.38;;;10.40;99.90;;;;;;6016068;23;20342;-79
2023/01/11 12:35:08;;;;;;;21.42;3.33;;;10.30;99.90;;;;;;5992680;23;20094;-79
2023/01/11 12:38:02;;;;;;;27.45;4.53;;;10.40;99.90;;;;;;6015989;23;20075;-80
2023/01/11 12:40:28;;;;;;;13.95;2.53;;;10.50;99.90;;;;;;6016407;23;20075;-78
2023/01/11 12:43:21;;;;;;;24.35;3.15;;;10.50;99.90;;;;;;6017126;23;20019;-79
2023/01/11 12:46:03;;;;;;;24.85;3.45;;;10.30;99.90;;;;;;6040967;23;20517;-79
2023/01/11 12:48:48;;;;;;;27.38;5.13;;;10.20;99.90;;;;;;6015587;23;20509;-79
2023/01/11 12:51:26;;;;;;;23.67;4.00;;;10.20;99.90;;;;;;6015706;23;20016;-79
2023/01/11 12:53:51;;;;;;;18.70;3.25;;;10.30;99.90;;;;;;6016679;23;20074;-79
2023/01/11 12:56:38;;;;;;;17.35;2.80;;;10.20;99.90;;;;;;6040928;23;20015;-79
2023/01/11 12:59:14;;;;;;;25.90;3.20;;;10.20;99.90;;;;;;6015602;23;20015;-79
2023/01/11 13:01:45;;;;;;;26.77;3.40;;;10.20;99.90;;;;;;6015748;23;20470;-78
2023/01/11 13:04:36;;;;;;;18.90;3.33;;;10.20;99.90;;;;;;6016003;23;20103;-79
2023/01/11 13:07:16;;;;;;;20.10;3.55;;;10.20;99.90;;;;;;5963722;23;20086;-79
2023/01/11 13:10:06;;;;;;;20.02;2.63;;;10.20;99.90;;;;;;5993531;23;20063;-79
2023/01/11 13:12:45;;;;;;;23.15;3.25;;;10.20;99.90;;;;;;6015438;23;20027;-79
2023/01/11 13:15:11;;;;;;;31.02;3.00;;;10.20;99.90;;;;;;6015433;23;20038;-80
2023/01/11 13:17:58;;;;;;;15.68;2.92;;;10.20;99.90;;;;;;5992453;23;20019;-80
2023/01/11 13:20:40;;;;;;;18.63;2.55;;;10.30;99.90;;;;;;6015241;23;20345;-79
2023/01/11 13:23:31;;;;;;;18.70;3.17;;;10.50;99.90;;;;;;6015538;23;20353;-80
2023/01/11 13:26:05;;;;;;;18.83;2.75;;;10.70;99.90;;;;;;6015467;23;20011;-79
2023/01/11 13:28:39;;;;;;;19.88;3.15;;;10.80;99.90;;;;;;5992051;23;20042;-79
2023/01/11 13:31:08;;;;;;;20.35;3.45;;;10.80;99.90;;;;;;6015490;23;20438;-80
2023/01/11 13:33:38;;;;;;;21.77;3.50;;;10.60;99.90;;;;;;6015397;23;20027;-78
2023/01/11 13:36:13;;;;;;;19.92;2.47;;;10.40;99.90;;;;;;6040856;23;20077;-78
2023/01/11 13:39:09;;;;;;;18.17;3.22;;;10.40;99.90;;;;;;5992326;23;20461;-80
2023/01/11 13:41:46;;;;;;;15.07;3.28;;;10.30;99.90;;;;;;6015805;23;20022;-79
2023/01/11 13:44:16;;;;;;;17.25;3.03;;;10.10;99.90;;;;;;6015349;23;20023;-81
2023/01/11 13:46:56;;;;;;;23.85;3.08;;;10.10;99.90;;;;;;6040978;23;20011;-79
2023/01/11 13:49:30;;;;;;;28.75;3.63;;;10.00;99.90;;;;;;6015418;23;20070;-80
2023/01/11 13:52:02;;;;;;;20.42;2.95;;;10.00;99.90;;;;;;6041027;23;20067;-80
2023/01/11 13:54:56;;;;;;;22.13;3.35;;;10.10;99.90;;;;;;6015391;23;20390;-79
2023/01/11 13:57:40;;;;;;;20.27;2.70;;;10.10;99.90;;;;;;6015122;23;20019;-80
2023/01/11 14:00:22;;;;;;;23.45;3.47;;;10.10;99.90;;;;;;5991639;23;20030;-79
2023/01/11 14:02:56;;;;;;;19.92;2.75;;;10.00;99.90;;;;;;6015363;23;20035;-80
2023/01/11 14:05:22;;;;;;;27.90;3.35;;;10.00;99.90;;;;;;6015520;23;20430;-79
2023/01/11 14:08:15;;;;;;;20.20;4.35;;;10.00;99.90;;;;;;6015596;23;20090;-80
2023/01/11 14:10:43;;;;;;;18.85;2.63;;;10.00;99.90;;;;;;6000042;23;20031;-76
2023/01/11 14:16:35;;;;;;;20.23;3.15;;;9.80;99.90;;;;;;6043952;23;20354;-80
2023/01/11 14:19:13;;;;;;;17.58;3.42;;;9.80;99.90;;;;;;6016165;23;20030;-79
2023/01/11 14:21:58;;;;;;;19.75;2.83;;;9.80;99.90;;;;;;6015880;23;20023;-81
2023/01/11 14:24:27;;;;;;;23.95;3.58;;;9.90;99.90;;;;;;6040859;23;20485;-79
2023/01/11 14:27:15;;;;;;;20.90;3.10;;;9.90;99.90;;;;;;6016377;23;20022;-80
2023/01/11 14:29:48;;;;;;;25.23;3.83;;;9.80;99.90;;;;;;6040906;23;20442;-80
2023/01/11 14:32:40;;;;;;;20.55;3.60;;;9.80;99.90;;;;;;6015591;23;20051;-80
2023/01/11 14:35:24;;;;;;;22.90;3.42;;;9.70;99.90;;;;;;5993168;23;20023;-79
2023/01/11 14:38:09;;;;;;;18.75;2.67;;;9.60;99.90;;;;;;6015133;23;20109;-80
2023/01/11 14:41:03;;;;;;;18.15;2.72;;;9.60;99.90;;;;;;6038991;23;20023;-80
2023/01/11 14:43:56;;;;;;;21.48;3.17;;;9.60;99.90;;;;;;6015423;23;20023;-80
2023/01/11 14:46:48;;;;;;;23.27;4.30;;;9.50;99.90;;;;;;6015460;23;20019;-80
2023/01/11 14:49:38;;;;;;;21.33;3.72;;;9.50;99.90;;;;;;5991399;23;20146;-80
2023/01/11 14:52:14;;;;;;;19.92;2.75;;;9.50;99.90;;;;;;6015573;23;20026;-80
2023/01/11 14:54:44;;;;;;;26.73;3.70;;;9.50;99.90;;;;;;6015760;23;20026;-82
2023/01/11 14:57:38;;;;;;;24.52;3.95;;;9.40;99.90;;;;;;6014959;23;20015;-79
2023/01/11 15:00:24;;;;;;;18.55;3.05;;;9.40;99.90;;;;;;5991593;23;20019;-81
2023/01/11 15:02:51;;;;;;;21.90;3.00;;;9.40;99.90;;;;;;6014773;23;20020;-80
2023/01/11 15:05:36;;;;;;;25.52;3.00;;;9.40;99.90;;;;;;6014555;23;20011;-80
2023/01/11 15:08:14;;;;;;;24.73;4.93;;;9.40;99.90;;;;;;6014615;23;20015;-79
2023/01/11 15:10:55;;;;;;;21.30;2.67;;;9.40;99.90;;;;;;6039917;23;20015;-79
2023/01/11 15:13:41;;;;;;;15.15;3.00;;;9.30;99.90;;;;;;6040528;23;20046;-79
2023/01/11 15:19:04;;;;;;;25.15;4.30;;;9.20;99.90;;;;;;6040404;23;20061;-80
2023/01/11 15:21:35;;;;;;;31.70;3.55;;;9.30;99.90;;;;;;5991376;23;20023;-80
2023/01/11 15:24:00;;;;;;;15.20;2.40;;;9.20;99.90;;;;;;6014757;23;20516;-81
2023/01/11 15:26:26;;;;;;;17.13;3.25;;;9.20;99.90;;;;;;6014822;23;20015;-82
2023/01/11 15:28:58;;;;;;;30.63;3.50;;;9.20;99.90;;;;;;6014941;23;20019;-80
2023/01/11 15:31:33;;;;;;;14.93;2.65;;;9.10;99.90;;;;;;6040448;23;20307;-79
2023/01/11 15:34:16;;;;;;;13.65;2.30;;;9.10;99.90;;;;;;6015096;23;20019;-80
2023/01/11 15:37:01;;;;;;;17.95;2.78;;;9.10;99.90;;;;;;6040372;23;20042;-79
2023/01/11 15:40:01;;;;;;;28.00;3.47;;;9.00;99.90;;;;;;6015937;23;20094;-80
2023/01/11 15:42:46;;;;;;;28.48;3.60;;;9.00;99.90;;;;;;6014794;23;20446;-81
2023/01/11 15:45:21;;;;;;;34.92;5.82;;;9.00;99.90;;;;;;6015142;23;20016;-80
2023/01/11 15:48:21;;;;;;;28.88;6.05;;;9.00;99.90;;;;;;6015553;23;20438;-81
2023/01/11 15:51:06;;;;;;;27.17;4.32;;;8.90;99.90;;;;;;5991434;23;20442;-81
2023/01/11 15:53:51;;;;;;;21.60;4.00;;;8.90;99.90;;;;;;6015104;23;20019;-79
2023/01/11 15:56:19;;;;;;;26.77;3.40;;;8.80;99.90;;;;;;5992839;23;20252;-80
2023/01/11 15:58:51;;;;;;;18.23;3.50;;;8.80;99.90;;;;;;6014759;23;20193;-79
2023/01/11 16:01:25;;;;;;;22.38;4.05;;;8.80;99.90;;;;;;6016808;23;20345;-79
2023/01/11 16:04:02;;;;;;;17.77;3.00;;;8.80;99.90;;;;;;6016916;23;20026;-82
2023/01/11 16:06:53;;;;;;;19.48;3.17;;;8.80;99.90;;;;;;5993334;23;20075;-79
2023/01/11 16:09:32;;;;;;;19.35;3.92;;;8.80;99.90;;;;;;6016850;23;20067;-78
2023/01/11 16:12:22;;;;;;;25.52;3.40;;;8.80;99.90;;;;;;6016312;23;20342;-80
2023/01/11 16:15:18;;;;;;;23.90;3.58;;;8.80;99.90;;;;;;6016906;23;20076;-79
2023/01/11 16:17:48;;;;;;;16.02;3.05;;;8.80;99.90;;;;;;6017620;23;20015;-79
2023/01/11 16:20:25;;;;;;;25.25;3.13;;;8.80;99.90;;;;;;6016688;23;20023;-78
2023/01/11 16:23:00;;;;;;;22.20;2.90;;;8.80;99.90;;;;;;6016197;23;20054;-78
2023/01/11 16:25:33;;;;;;;18.55;4.10;;;8.80;99.90;;;;;;6016695;23;20071;-78
2023/01/11 16:27:59;;;;;;;20.92;2.85;;;8.90;99.90;;;;;;6016126;23;20016;-77
2023/01/11 16:30:26;;;;;;;21.92;3.20;;;8.80;99.90;;;;;;5992642;23;20027;-78
2023/01/11 16:32:52;;;;;;;24.63;3.72;;;8.80;99.90;;;;;;6041602;23;20020;-79
2023/01/11 16:35:21;;;;;;;24.13;3.40;;;8.70;99.90;;;;;;6016019;23;20030;-81
2023/01/11 16:37:57;;;;;;;21.95;3.35;;;8.80;99.90;;;;;;6015997;23;20042;-79
2023/01/11 16:40:30;;;;;;;17.70;4.18;;;8.70;99.90;;;;;;6016865;23;20082;-79
2023/01/11 16:43:14;;;;;;;17.48;3.13;;;8.70;99.90;;;;;;6016173;23;20071;-80
2023/01/11 16:45:48;;;;;;;29.10;4.47;;;8.70;99.90;;;;;;5992849;23;20015;-80
2023/01/11 16:48:20;;;;;;;23.10;3.22;;;8.60;99.90;;;;;;6041652;23;20353;-80
2023/01/11 16:51:02;;;;;;;13.40;2.17;;;8.60;99.90;;;;;;6015957;23;20094;-81
2023/01/11 16:53:33;;;;;;;22.55;2.97;;;8.60;99.90;;;;;;6041205;23;20090;-80
2023/01/11 16:56:15;;;;;;;15.52;2.15;;;8.60;99.90;;;;;;6016414;23;20034;-81
2023/01/11 16:58:42;;;;;;;17.27;2.80;;;8.60;99.90;;;;;;6016355;23;20346;-80
2023/01/11 17:01:12;;;;;;;26.00;4.32;;;8.60;99.90;;;;;;6016045;23;20047;-78
2023/01/11 17:03:46;;;;;;;22.88;2.42;;;8.60;99.90;;;;;;5993018;23;20027;-81
2023/01/11 17:06:17;;;;;;;23.50;3.22;;;8.60;99.90;;;;;;6042440;23;20012;-79
2023/01/11 17:08:51;;;;;;;22.42;3.60;;;8.60;99.90;;;;;;6041568;23;20011;-80
2023/01/11 17:11:23;;;;;;;22.33;3.55;;;8.60;99.90;;;;;;6015645;23;20047;-79
2023/01/11 17:14:05;;;;;;;18.63;3.63;;;8.60;99.90;;;;;;6015962;23;20079;-79
2023/01/11 17:16:43;;;;;;;23.67;3.30;;;8.50;99.90;;;;;;6016357;23;20408;-79
2023/01/11 17:19:18;;;;;;;19.88;4.18;;;8.60;99.90;;;;;;6016422;23;20489;-80
2023/01/11 17:21:48;;;;;;;18.70;2.33;;;8.60;99.90;;;;;;6017172;23;20027;-79
2023/01/11 17:24:15;;;;;;;24.88;4.40;;;8.60;99.90;;;;;;6016594;23;20449;-81
2023/01/11 17:26:45;;;;;;;19.95;3.05;;;8.60;99.90;;;;;;6016566;23;20011;-80
2023/01/11 17:29:48;;;;;;;17.05;2.63;;;8.60;99.90;;;;;;6016740;23;20024;-79
2023/01/11 17:32:20;;;;;;;25.48;4.20;;;8.60;99.90;;;;;;5940301;23;20054;-80
2023/01/11 17:34:49;;;;;;;15.10;2.97;;;8.60;99.90;;;;;;6016146;23;20019;-79